Time;durP1;ratioP1;P1;durP2;ratioP2;P2;SDS_P1;SDS_P2;PMS_P1;PMS_P2;Temp;Humidity;BMP_temperature;BMP_pressure;BME280_temperature;BME280_humidity;BME280_pressure;Samples;Min_cycle;Max_cycle;Signal;HPM_P1;HPM_P2
2022/04/23 00:01:42;;;;;;;11.25;4.00;;;384.90;2329.60;;;;;;5077677;28;20067;-82
2022/04/23 00:04:12;;;;;;;10.38;4.57;;;384.70;2329.60;;;;;;5078320;28;20081;-82
2022/04/23 00:06:38;;;;;;;11.90;5.75;;;409.60;2355.20;;;;;;5078021;28;20032;-82
2022/04/23 00:09:05;;;;;;;8.18;4.28;;;409.70;2355.20;;;;;;5077649;28;20034;-82
2022/04/23 00:11:32;;;;;;;7.95;3.65;;;409.60;2355.20;;;;;;5078059;28;20076;-82
2022/04/23 00:13:59;;;;;;;6.97;4.43;;;384.90;2329.60;;;;;;5077737;28;20032;-85
2022/04/23 00:16:25;;;;;;;11.10;4.50;;;384.90;2329.60;;;;;;5077510;28;20035;-83
2022/04/23 00:18:51;;;;;;;12.20;4.55;;;384.70;2329.60;;;;;;5077519;28;20060;-82
2022/04/23 00:21:20;;;;;;;9.25;5.35;;;384.50;2329.60;;;;;;5077428;28;20494;-82
2022/04/23 00:23:47;;;;;;;10.55;5.53;;;384.50;2329.60;;;;;;5078226;28;20132;-83
2022/04/23 00:26:13;;;;;;;12.60;5.10;;;384.40;2329.60;;;;;;5076925;28;20036;-81
2022/04/23 00:28:39;;;;;;;13.63;6.45;;;384.50;2329.60;;;;;;5077669;28;20024;-82
2022/04/23 00:31:05;;;;;;;10.13;5.63;;;384.60;2329.60;;;;;;5077441;28;20031;-82
2022/04/23 00:33:37;;;;;;;8.80;4.65;;;384.50;2329.60;;;;;;5076980;28;20031;-82
2022/04/23 00:36:04;;;;;;;10.55;5.55;;;384.50;2329.60;;;;;;5076787;28;20020;-84
2022/04/23 00:38:31;;;;;;;12.43;5.60;;;384.30;2329.60;;;;;;5076996;28;20036;-82
2022/04/23 00:40:57;;;;;;;12.30;5.53;;;384.40;2329.60;;;;;;5075716;28;20048;-85
2022/04/23 00:43:34;;;;;;;13.77;5.68;;;384.50;2329.60;;;;;;5099091;28;20642;-82
2022/04/23 00:46:00;;;;;;;10.30;5.80;;;384.50;2329.60;;;;;;5079994;28;20058;-81
2022/04/23 00:48:26;;;;;;;12.05;5.13;;;384.50;2329.60;;;;;;5081254;28;20541;-81
2022/04/23 00:50:55;;;;;;;12.88;6.13;;;384.50;2329.60;;;;;;5077899;28;20056;-84
2022/04/23 00:53:23;;;;;;;14.48;5.68;;;384.40;2329.60;;;;;;5078654;28;20036;-82
2022/04/23 00:55:49;;;;;;;12.25;5.72;;;384.30;2329.60;;;;;;5074042;28;20020;-82
2022/04/23 00:58:16;;;;;;;12.38;5.28;;;384.10;2329.60;;;;;;5073015;28;20028;-82
2022/04/23 01:00:46;;;;;;;14.95;6.68;;;359.30;2329.60;;;;;;5073661;28;20041;-82
2022/04/23 01:03:13;;;;;;;13.52;5.97;;;359.30;2329.60;;;;;;5072933;28;20572;-81
2022/04/23 01:05:46;;;;;;;11.10;5.75;;;384.00;2329.60;;;;;;5072375;28;20066;-82
2022/04/23 01:08:18;;;;;;;9.57;5.15;;;384.10;2329.60;;;;;;5072357;28;20020;-82
2022/04/23 01:10:45;;;;;;;11.05;4.93;;;384.20;2329.60;;;;;;5072733;28;20017;-81
2022/04/23 01:13:14;;;;;;;10.93;5.75;;;384.50;2329.60;;;;;;5072462;28;20023;-82
2022/04/23 01:15:43;;;;;;;12.75;4.50;;;384.40;2329.60;;;;;;5072265;28;20477;-81
2022/04/23 01:18:08;;;;;;;10.73;5.07;;;384.40;2329.60;;;;;;5071789;28;20089;-81
2022/04/23 01:20:36;;;;;;;12.00;5.13;;;384.40;2329.60;;;;;;5072247;28;20040;-84
2022/04/23 01:23:02;;;;;;;11.82;5.15;;;384.50;2329.60;;;;;;5072699;28;20025;-82
2022/04/23 01:25:33;;;;;;;12.32;5.53;;;384.50;2329.60;;;;;;5071093;28;20056;-82
2022/04/23 01:28:00;;;;;;;11.18;5.05;;;384.60;2329.60;;;;;;5072073;28;20492;-81
2022/04/23 01:30:26;;;;;;;13.10;5.13;;;384.70;2329.60;;;;;;5071585;28;20028;-81
2022/04/23 01:32:52;;;;;;;9.18;4.72;;;384.70;2329.60;;;;;;5071283;28;20020;-80
2022/04/23 01:35:18;;;;;;;9.55;5.28;;;384.40;2329.60;;;;;;5072389;28;20036;-80
2022/04/23 01:37:43;;;;;;;11.05;4.78;;;384.40;2329.60;;;;;;5071547;28;20028;-80
2022/04/23 01:40:09;;;;;;;9.68;4.13;;;384.30;2329.60;;;;;;5071526;28;20123;-81
2022/04/23 01:42:35;;;;;;;7.28;4.10;;;384.30;2329.60;;;;;;5071679;28;20059;-81
2022/04/23 01:45:01;;;;;;;10.88;4.32;;;384.20;2329.60;;;;;;5070690;28;20048;-81
2022/04/23 01:47:27;;;;;;;7.95;3.90;;;384.20;2329.60;;;;;;5071140;28;20029;-81
2022/04/23 01:49:53;;;;;;;8.40;3.40;;;384.30;2329.60;;;;;;5072139;28;20025;-82
2022/04/23 01:52:18;;;;;;;9.52;3.70;;;384.40;2329.60;;;;;;5071202;28;20037;-82
2022/04/23 01:54:44;;;;;;;8.45;3.88;;;384.40;2329.60;;;;;;5072224;28;20036;-81
2022/04/23 01:57:10;;;;;;;12.05;3.85;;;384.40;2329.60;;;;;;5072183;28;20024;-81
2022/04/23 01:59:35;;;;;;;9.15;4.63;;;384.20;2329.60;;;;;;5072300;28;20028;-81
2022/04/23 02:02:01;;;;;;;9.55;3.97;;;359.30;2329.60;;;;;;5071803;28;20036;-82
2022/04/23 02:04:27;;;;;;;8.82;4.18;;;359.30;2329.60;;;;;;5072356;28;20052;-81
2022/04/23 02:06:53;;;;;;;7.35;3.63;;;359.20;2329.60;;;;;;5072235;28;20040;-82
2022/04/23 02:09:19;;;;;;;7.55;3.75;;;384.00;2329.60;;;;;;5072716;28;20024;-82
2022/04/23 02:11:45;;;;;;;11.90;3.63;;;384.20;2329.60;;;;;;5072241;28;20024;-82
2022/04/23 02:14:10;;;;;;;9.95;3.75;;;384.20;2329.60;;;;;;5071920;28;20091;-83
2022/04/23 02:16:36;;;;;;;8.23;3.20;;;384.00;2329.60;;;;;;5070999;28;20033;-81
2022/04/23 02:19:03;;;;;;;11.30;3.50;;;384.00;2329.60;;;;;;5072014;28;20526;-83
2022/04/23 02:21:30;;;;;;;7.07;3.35;;;359.20;2329.60;;;;;;5072198;28;20032;-83
2022/04/23 02:23:56;;;;;;;6.10;3.58;;;359.10;2329.60;;;;;;5072035;28;20111;-81
2022/04/23 02:26:22;;;;;;;5.85;3.28;;;359.00;2329.60;;;;;;5072449;28;20031;-84
2022/04/23 02:28:48;;;;;;;7.93;3.38;;;359.10;2329.60;;;;;;5071941;28;20032;-83
2022/04/23 02:31:14;;;;;;;6.50;3.92;;;359.00;2329.60;;;;;;5071700;28;20051;-80
2022/04/23 02:33:40;;;;;;;6.45;3.70;;;359.00;2329.60;;;;;;5071732;28;20017;-83
2022/04/23 02:36:07;;;;;;;12.77;4.68;;;358.80;2329.60;;;;;;5071567;28;20066;-81
2022/04/23 02:38:33;;;;;;;7.70;4.32;;;358.70;2329.60;;;;;;5072001;28;20500;-85
2022/04/23 02:40:58;;;;;;;10.55;4.40;;;358.70;2329.60;;;;;;5071430;28;20043;-81
2022/04/23 02:43:24;;;;;;;12.88;4.60;;;358.70;2329.60;;;;;;5071908;28;20021;-80
2022/04/23 02:45:50;;;;;;;8.93;3.80;;;358.60;2329.60;;;;;;5071725;28;20064;-81
2022/04/23 02:48:16;;;;;;;11.27;4.15;;;358.80;2329.60;;;;;;5071529;28;20020;-81
2022/04/23 02:50:42;;;;;;;14.60;5.20;;;359.00;2329.60;;;;;;5071235;28;20562;-82
2022/04/23 02:53:09;;;;;;;12.40;4.57;;;359.00;2329.60;;;;;;5072832;28;20051;-81
2022/04/23 02:55:36;;;;;;;10.65;5.28;;;359.20;2329.60;;;;;;5072782;28;20095;-81
2022/04/23 02:58:02;;;;;;;10.00;4.47;;;359.20;2329.60;;;;;;5071845;28;20028;-82
2022/04/23 03:00:28;;;;;;;13.05;4.03;;;359.20;2329.60;;;;;;5071545;28;20040;-83
2022/04/23 03:02:54;;;;;;;11.93;4.68;;;359.00;2329.60;;;;;;5071976;28;20025;-89
2022/04/23 03:05:21;;;;;;;8.07;4.03;;;358.90;2329.60;;;;;;5071801;28;20086;-90
2022/04/23 03:07:48;;;;;;;9.85;4.78;;;358.90;2329.60;;;;;;5071741;28;20025;-81
2022/04/23 03:10:15;;;;;;;7.03;4.03;;;359.00;2329.60;;;;;;5071804;28;20016;-89
2022/04/23 03:12:41;;;;;;;11.63;3.97;;;359.10;2329.60;;;;;;5071803;28;20078;-82
2022/04/23 03:15:10;;;;;;;7.95;3.97;;;359.20;2329.60;;;;;;5071416;28;20039;-82
2022/04/23 03:17:36;;;;;;;12.68;3.95;;;359.30;2329.60;;;;;;5071312;28;20029;-83
2022/04/23 03:20:04;;;;;;;11.52;4.00;;;359.30;2329.60;;;;;;5071032;28;20035;-81
2022/04/23 03:22:30;;;;;;;9.15;4.50;;;384.10;2329.60;;;;;;5071134;28;20516;-82
2022/04/23 03:24:55;;;;;;;11.43;3.90;;;384.00;2329.60;;;;;;5071260;28;20067;-81
2022/04/23 03:27:21;;;;;;;7.60;3.80;;;359.20;2329.60;;;;;;5070369;28;20044;-83
2022/04/23 03:29:47;;;;;;;9.93;4.85;;;384.00;2329.60;;;;;;5071336;28;20055;-79
2022/04/23 03:32:13;;;;;;;14.02;6.82;;;384.10;2329.60;;;;;;5071430;28;20044;-79
2022/04/23 03:34:39;;;;;;;13.45;6.47;;;384.20;2329.60;;;;;;5070760;28;20385;-79
2022/04/23 03:37:05;;;;;;;10.70;5.22;;;384.30;2329.60;;;;;;5071407;28;20025;-83
2022/04/23 03:39:34;;;;;;;10.57;4.70;;;384.40;2329.60;;;;;;5072231;28;20029;-84
2022/04/23 03:42:03;;;;;;;13.35;4.80;;;384.30;2329.60;;;;;;5071290;28;20031;-81
2022/04/23 03:44:30;;;;;;;11.15;5.72;;;384.40;2329.60;;;;;;5070997;28;20027;-85
2022/04/23 03:46:57;;;;;;;9.70;4.68;;;384.40;2329.60;;;;;;5071135;28;20025;-80
2022/04/23 03:49:23;;;;;;;11.30;6.60;;;384.40;2329.60;;;;;;5075659;28;20501;-79
2022/04/23 03:51:49;;;;;;;9.70;4.32;;;384.40;2329.60;;;;;;5074837;28;20515;-84
2022/04/23 03:54:16;;;;;;;7.32;4.05;;;384.40;2329.60;;;;;;5073956;28;20039;-83
2022/04/23 03:56:42;;;;;;;9.73;4.63;;;384.50;2329.60;;;;;;5074556;28;20024;-83
2022/04/23 03:59:08;;;;;;;9.93;4.55;;;384.50;2329.60;;;;;;5074395;28;20037;-81
2022/04/23 04:01:34;;;;;;;8.90;4.47;;;384.40;2329.60;;;;;;5074927;28;20124;-79
2022/04/23 04:04:01;;;;;;;9.45;5.38;;;384.40;2329.60;;;;;;5073862;28;20033;-79
2022/04/23 04:06:27;;;;;;;8.88;4.78;;;384.40;2329.60;;;;;;5074358;28;20035;-79
2022/04/23 04:08:53;;;;;;;9.55;4.95;;;384.30;2329.60;;;;;;5074216;28;20039;-79
2022/04/23 04:11:19;;;;;;;11.80;5.85;;;384.30;2329.60;;;;;;5074190;28;20021;-81
2022/04/23 04:13:45;;;;;;;13.73;7.47;;;384.20;2329.60;;;;;;5073547;28;20035;-79
2022/04/23 04:16:12;;;;;;;12.77;7.10;;;384.30;2329.60;;;;;;5073821;28;20093;-81
2022/04/23 04:18:38;;;;;;;13.07;7.15;;;384.40;2329.60;;;;;;5074172;28;20024;-79
2022/04/23 04:21:05;;;;;;;10.77;4.93;;;384.40;2329.60;;;;;;5073365;28;20071;-82
2022/04/23 04:23:30;;;;;;;8.75;5.18;;;384.40;2329.60;;;;;;5073458;28;20033;-83
2022/04/23 04:25:56;;;;;;;13.77;6.20;;;384.40;2329.60;;;;;;5074494;28;20036;-81
2022/04/23 04:28:22;;;;;;;14.93;5.82;;;384.40;2329.60;;;;;;5074021;28;20032;-80
2022/04/23 04:33:33;;;;;;;13.55;4.93;;;384.40;2329.60;;;;;;5075189;28;20089;-84
2022/04/23 04:35:58;;;;;;;10.02;4.47;;;384.40;2329.60;;;;;;5073843;28;20541;-83
2022/04/23 04:38:24;;;;;;;12.23;3.78;;;384.40;2329.60;;;;;;5073096;28;20081;-84
2022/04/23 04:40:50;;;;;;;10.02;5.50;;;384.40;2329.60;;;;;;5073752;28;20036;-84
2022/04/23 04:43:16;;;;;;;15.57;5.90;;;384.40;2329.60;;;;;;5073916;28;20163;-82
2022/04/23 04:45:41;;;;;;;15.02;7.13;;;384.50;2329.60;;;;;;5072791;28;20040;-78
2022/04/23 04:48:07;;;;;;;9.35;5.32;;;384.50;2329.60;;;;;;5073526;28;20481;-82
2022/04/23 04:50:33;;;;;;;9.05;4.32;;;384.50;2329.60;;;;;;5073502;28;20049;-80
2022/04/23 04:52:59;;;;;;;10.68;5.38;;;384.60;2329.60;;;;;;5073658;28;20039;-79
2022/04/23 04:55:24;;;;;;;11.00;5.97;;;384.50;2329.60;;;;;;5073647;28;20119;-82
2022/04/23 04:57:50;;;;;;;9.50;5.35;;;384.40;2329.60;;;;;;5073173;28;20092;-81
2022/04/23 05:00:18;;;;;;;9.55;5.68;;;384.40;2329.60;;;;;;5073457;28;20071;-79
2022/04/23 05:02:44;;;;;;;15.48;6.15;;;384.50;2329.60;;;;;;5073094;28;20020;-81
2022/04/23 05:05:10;;;;;;;10.90;5.75;;;384.50;2329.60;;;;;;5073576;28;20081;-83
2022/04/23 05:07:36;;;;;;;9.65;5.35;;;384.50;2329.60;;;;;;5073059;28;20500;-82
2022/04/23 05:10:02;;;;;;;10.15;6.07;;;384.50;2329.60;;;;;;5073529;28;20029;-81
2022/04/23 05:12:29;;;;;;;11.90;5.53;;;384.60;2329.60;;;;;;5074086;28;20067;-81
2022/04/23 05:14:54;;;;;;;9.00;5.07;;;384.70;2329.60;;;;;;5072838;28;20048;-81
2022/04/23 05:17:20;;;;;;;8.05;4.45;;;384.50;2329.60;;;;;;5073209;28;20474;-85
2022/04/23 05:19:46;;;;;;;11.68;5.22;;;384.50;2329.60;;;;;;5073261;28;20039;-85
2022/04/23 05:22:12;;;;;;;9.30;4.82;;;384.50;2329.60;;;;;;5072771;28;20045;-79
2022/04/23 05:24:37;;;;;;;10.60;5.60;;;384.50;2329.60;;;;;;5073224;28;20024;-82
2022/04/23 05:27:03;;;;;;;10.82;4.70;;;384.50;2329.60;;;;;;5073129;28;20032;-89
2022/04/23 05:29:29;;;;;;;10.88;5.22;;;384.60;2329.60;;;;;;5072899;28;20070;-82
2022/04/23 05:31:55;;;;;;;8.80;5.82;;;384.60;2329.60;;;;;;5074031;28;20028;-83
2022/04/23 05:34:21;;;;;;;7.45;4.85;;;384.60;2329.60;;;;;;5072309;28;20032;-83
2022/04/23 05:36:46;;;;;;;10.98;6.32;;;384.70;2329.60;;;;;;5073938;28;20035;-83
2022/04/23 05:39:12;;;;;;;13.32;5.05;;;384.70;2329.60;;;;;;5073284;28;20021;-81
2022/04/23 05:41:38;;;;;;;11.80;5.22;;;384.90;2329.60;;;;;;5072431;28;20494;-81
2022/04/23 05:44:03;;;;;;;8.82;4.70;;;384.90;2329.60;;;;;;5071992;28;20033;-82
2022/04/23 05:46:29;;;;;;;7.57;5.22;;;384.80;2329.60;;;;;;5072262;28;20037;-82
2022/04/23 05:48:56;;;;;;;9.60;5.07;;;384.70;2329.60;;;;;;5072015;28;20028;-79
2022/04/23 05:51:23;;;;;;;10.40;5.97;;;384.70;2329.60;;;;;;5071832;28;20048;-80
2022/04/23 05:53:49;;;;;;;11.68;5.78;;;384.70;2329.60;;;;;;5072117;28;20031;-82
2022/04/23 05:56:15;;;;;;;12.98;7.53;;;384.70;2329.60;;;;;;5073513;28;20032;-79
2022/04/23 05:58:40;;;;;;;13.60;7.88;;;384.70;2329.60;;;;;;5072397;28;20052;-80
2022/04/23 06:01:06;;;;;;;13.68;7.10;;;384.70;2329.60;;;;;;5072666;28;20032;-79
2022/04/23 06:03:32;;;;;;;17.02;9.32;;;384.80;2329.60;;;;;;5072290;28;20401;-79
2022/04/23 06:05:58;;;;;;;17.98;9.57;;;384.90;2329.60;;;;;;5072453;28;20465;-78
2022/04/23 06:08:23;;;;;;;20.30;10.23;;;384.70;2329.60;;;;;;5070869;28;20029;-78
2022/04/23 06:10:49;;;;;;;18.15;11.98;;;384.70;2329.60;;;;;;5070690;28;20474;-79
2022/04/23 06:13:15;;;;;;;22.92;12.23;;;384.70;2329.60;;;;;;5071461;28;20111;-79
2022/04/23 06:15:42;;;;;;;27.50;12.07;;;384.70;2329.60;;;;;;5072235;28;20539;-79
2022/04/23 06:18:08;;;;;;;21.65;12.80;;;384.70;2329.60;;;;;;5071415;28;20447;-78
2022/04/23 06:20:33;;;;;;;23.67;15.38;;;384.90;2329.60;;;;;;5070255;28;20071;-80
2022/04/23 06:22:59;;;;;;;23.88;15.43;;;384.80;2329.60;;;;;;5071765;28;20012;-85
2022/04/23 06:25:25;;;;;;;25.35;16.02;;;384.70;2329.60;;;;;;5072711;28;20105;-82
2022/04/23 06:27:50;;;;;;;22.90;15.85;;;384.80;2329.60;;;;;;5068483;28;20012;-79
2022/04/23 06:30:16;;;;;;;27.67;16.65;;;384.80;2329.60;;;;;;5073090;28;20028;-81
2022/04/23 06:32:42;;;;;;;26.33;16.27;;;384.90;2329.60;;;;;;5071981;28;20398;-79
2022/04/23 06:35:09;;;;;;;24.15;15.25;;;384.80;2329.60;;;;;;5071225;28;20065;-79
2022/04/23 06:37:41;;;;;;;31.58;17.08;;;384.70;2329.60;;;;;;5071342;28;20192;-80
2022/04/23 06:40:13;;;;;;;23.67;15.73;;;384.70;2329.60;;;;;;5071338;28;20052;-80
2022/04/23 06:42:40;;;;;;;24.05;14.43;;;384.70;2329.60;;;;;;5072602;28;20394;-79
2022/04/23 06:45:06;;;;;;;23.45;15.27;;;384.80;2329.60;;;;;;5070998;28;20123;-79
2022/04/23 06:47:32;;;;;;;28.02;15.70;;;384.70;2329.60;;;;;;5069713;28;20095;-84
2022/04/23 06:49:59;;;;;;;25.15;14.63;;;384.80;2329.60;;;;;;5070691;28;20355;-86
2022/04/23 06:52:25;;;;;;;22.65;13.77;;;384.90;2329.60;;;;;;5070839;28;20063;-80
2022/04/23 06:54:52;;;;;;;24.13;14.82;;;409.70;2355.20;;;;;;5071183;28;20059;-81
2022/04/23 06:57:18;;;;;;;18.85;12.63;;;409.80;2355.20;;;;;;5071568;28;20017;-84
2022/04/23 06:59:44;;;;;;;27.17;14.27;;;410.00;2355.20;;;;;;5071992;28;20371;-82
2022/04/23 07:02:09;;;;;;;16.27;11.77;;;410.10;2355.20;;;;;;5072152;28;20100;-81
2022/04/23 07:04:35;;;;;;;18.52;11.98;;;410.00;2355.20;;;;;;5070949;28;20028;-82
2022/04/23 07:07:01;;;;;;;17.23;10.90;;;409.90;2355.20;;;;;;5071456;28;20029;-82
2022/04/23 07:09:27;;;;;;;21.17;12.45;;;409.90;2355.20;;;;;;5072072;28;20027;-81
2022/04/23 07:11:53;;;;;;;18.40;12.95;;;409.90;2355.20;;;;;;5069174;28;20100;-80
2022/04/23 07:14:19;;;;;;;20.33;13.55;;;409.90;2355.20;;;;;;5072009;28;20028;-79
2022/04/23 07:16:44;;;;;;;16.95;12.10;;;410.00;2355.20;;;;;;5070943;28;20024;-83
2022/04/23 07:19:11;;;;;;;17.98;12.77;;;410.20;2355.20;;;;;;5071129;28;20024;-80
2022/04/23 07:21:37;;;;;;;20.83;12.07;;;410.40;2355.20;;;;;;5070872;28;20045;-81
2022/04/23 07:24:03;;;;;;;20.90;12.95;;;410.30;2355.20;;;;;;5074731;28;20063;-81
2022/04/23 07:26:29;;;;;;;25.08;15.07;;;410.50;2355.20;;;;;;5074728;28;20120;-80
2022/04/23 07:28:55;;;;;;;19.77;13.05;;;410.30;2355.20;;;;;;5074847;28;20810;-84
2022/04/23 07:31:21;;;;;;;19.98;13.15;;;410.30;2355.20;;;;;;5074369;28;20044;-81
2022/04/23 07:39:23;;;;;;;19.80;12.88;;;410.20;2355.20;;;;;;5074786;28;20535;-83
2022/04/23 07:41:49;;;;;;;20.55;13.07;;;410.20;2355.20;;;;;;5074170;28;20044;-84
2022/04/23 07:44:14;;;;;;;22.88;15.80;;;410.30;2355.20;;;;;;5071549;28;20070;-82
2022/04/23 07:46:40;;;;;;;18.85;11.63;;;410.50;2355.20;;;;;;5073554;28;20016;-82
2022/04/23 07:49:06;;;;;;;20.27;12.57;;;435.30;2355.20;;;;;;5074547;28;20055;-80
2022/04/23 07:51:31;;;;;;;18.45;11.60;;;435.30;2355.20;;;;;;5087199;28;20055;-81
2022/04/23 07:53:57;;;;;;;19.08;13.50;;;435.30;2355.20;;;;;;5077548;28;20443;-80
2022/04/23 07:56:23;;;;;;;17.60;11.82;;;435.20;2355.20;;;;;;5095425;28;20461;-81
2022/04/23 07:58:49;;;;;;;20.98;12.02;;;435.30;2355.20;;;;;;5077395;28;20031;-81
2022/04/23 08:01:16;;;;;;;17.25;12.48;;;410.50;2355.20;;;;;;5074349;28;20051;-82
2022/04/23 08:03:41;;;;;;;18.70;13.43;;;435.20;2355.20;;;;;;5095560;28;20019;-81
2022/04/23 08:06:10;;;;;;;21.13;12.25;;;410.50;2355.20;;;;;;5095469;28;20028;-85
2022/04/23 08:08:36;;;;;;;21.88;13.20;;;410.50;2355.20;;;;;;5068740;28;20016;-82
2022/04/23 08:11:02;;;;;;;18.45;12.80;;;410.50;2355.20;;;;;;5076777;28;20510;-79
2022/04/23 08:13:28;;;;;;;21.42;14.48;;;435.30;2355.20;;;;;;5067625;28;20036;-80
2022/04/23 08:15:54;;;;;;;25.75;16.83;;;435.20;2355.20;;;;;;5094435;28;20490;-79
2022/04/23 08:18:19;;;;;;;22.63;14.98;;;410.50;2355.20;;;;;;5094407;28;20092;-80
2022/04/23 08:20:45;;;;;;;21.27;15.32;;;410.50;2355.20;;;;;;5076895;28;20036;-83
2022/04/23 08:23:11;;;;;;;24.05;15.10;;;410.50;2355.20;;;;;;5076575;28;20047;-80
2022/04/23 08:25:37;;;;;;;25.05;15.23;;;410.50;2355.20;;;;;;5094631;28;20482;-80
2022/04/23 08:30:47;;;;;;;20.67;14.20;;;410.40;2355.20;;;;;;5093727;28;20130;-85
2022/04/23 08:33:13;;;;;;;23.20;14.60;;;410.50;2355.20;;;;;;5075602;28;20038;-80
2022/04/23 08:35:40;;;;;;;20.17;14.25;;;410.50;2355.20;;;;;;5075988;28;20032;-80
2022/04/23 08:38:07;;;;;;;19.30;12.85;;;410.40;2355.20;;;;;;5068360;28;20027;-81
2022/04/23 08:40:40;;;;;;;20.08;13.98;;;410.40;2355.20;;;;;;5076348;28;20023;-81
2022/04/23 08:43:07;;;;;;;20.63;14.45;;;410.50;2355.20;;;;;;5094829;28;20028;-83
2022/04/23 08:45:36;;;;;;;24.83;15.07;;;410.50;2355.20;;;;;;5075936;28;20016;-84
2022/04/23 08:48:07;;;;;;;19.80;14.68;;;435.20;2355.20;;;;;;5075975;28;20027;-81
2022/04/23 08:50:37;;;;;;;21.13;13.95;;;435.40;2355.20;;;;;;5094069;28;20044;-83
2022/04/23 08:53:17;;;;;;;21.48;13.70;;;435.60;2355.20;;;;;;5075263;28;20123;-78
2022/04/23 08:55:45;;;;;;;20.77;13.45;;;435.60;2355.20;;;;;;5074029;28;20070;-80
2022/04/23 08:58:15;;;;;;;20.08;14.98;;;435.80;2355.20;;;;;;5074904;28;20027;-78
2022/04/23 09:00:41;;;;;;;21.10;15.25;;;435.70;2355.20;;;;;;5072168;28;20047;-78
2022/04/23 09:03:13;;;;;;;22.55;15.98;;;435.60;2355.20;;;;;;5092743;28;20556;-78
2022/04/23 09:05:39;;;;;;;27.60;16.27;;;435.50;2355.20;;;;;;5071946;28;20110;-78
2022/04/23 09:08:07;;;;;;;24.42;16.52;;;435.50;2355.20;;;;;;5092276;28;20438;-81
2022/04/23 09:10:56;;;;;;;26.45;17.30;;;435.50;2355.20;;;;;;5066069;28;20167;-79
2022/04/23 09:13:29;;;;;;;27.02;16.35;;;435.50;2355.20;;;;;;5064102;28;20025;-80
2022/04/23 09:24:45;;;;;;;23.88;17.15;;;435.80;2355.20;;;;;;5093188;28;20027;-82
2022/04/23 09:27:11;;;;;;;28.00;16.33;;;436.00;2355.20;;;;;;5074876;28;20048;-84
2022/04/23 09:29:37;;;;;;;22.52;16.38;;;436.00;2355.20;;;;;;5074437;28;20048;-80
2022/04/23 09:32:19;;;;;;;22.08;15.90;;;436.10;2355.20;;;;;;5074744;28;20441;-80
2022/04/23 09:34:45;;;;;;;24.05;14.60;;;460.80;2380.80;;;;;;5090235;28;20020;-79
2022/04/23 09:37:11;;;;;;;20.15;13.98;;;460.90;2380.80;;;;;;5091958;28;20024;-78
2022/04/23 09:39:38;;;;;;;20.38;14.70;;;461.10;2380.80;;;;;;5065672;28;20481;-76
2022/04/23 09:42:33;;;;;;;19.25;13.10;;;461.20;2380.80;;;;;;5072924;28;20032;-77
2022/04/23 09:45:17;;;;;;;18.52;13.30;;;461.40;2380.80;;;;;;5008639;28;20037;-77
2022/04/23 09:47:43;;;;;;;18.42;12.93;;;461.60;2380.80;;;;;;4993404;28;20022;-79
2022/04/23 09:50:15;;;;;;;19.42;14.48;;;486.40;2380.80;;;;;;4992391;28;20124;-79
2022/04/23 09:52:42;;;;;;;18.27;13.05;;;461.70;2380.80;;;;;;5006929;28;20029;-80
2022/04/23 09:55:10;;;;;;;18.15;13.00;;;486.50;2380.80;;;;;;5009847;28;20092;-76
2022/04/23 09:57:38;;;;;;;17.35;13.02;;;486.70;2380.80;;;;;;4993159;28;20209;-79
2022/04/23 10:00:05;;;;;;;21.10;12.88;;;486.80;2380.80;;;;;;5009813;28;20177;-81
2022/04/23 10:02:32;;;;;;;18.17;12.55;;;487.10;2380.80;;;;;;4993256;28;20037;-80
2022/04/23 10:05:01;;;;;;;19.30;13.55;;;486.80;2380.80;;;;;;5009695;28;20043;-77
2022/04/23 10:07:29;;;;;;;19.08;11.75;;;486.80;2380.80;;;;;;5009141;28;20030;-81
2022/04/23 10:09:57;;;;;;;22.58;13.20;;;486.60;2380.80;;;;;;4992721;28;20018;-77
2022/04/23 10:12:25;;;;;;;21.67;13.02;;;486.40;2380.80;;;;;;4992735;28;20060;-81
2022/04/23 10:14:57;;;;;;;19.50;12.98;;;486.70;2380.80;;;;;;5009454;28;20553;-77
2022/04/23 10:17:24;;;;;;;20.85;13.32;;;487.00;2380.80;;;;;;5007983;28;20134;-81
2022/04/23 10:19:51;;;;;;;21.33;13.23;;;512.00;2380.80;;;;;;4993371;28;20105;-78
2022/04/23 10:22:19;;;;;;;16.17;12.10;;;487.30;2380.80;;;;;;5063466;28;20156;-80
2022/04/23 10:24:51;;;;;;;17.25;11.75;;;512.20;2380.80;;;;;;5092148;28;20020;-81
2022/04/23 10:27:18;;;;;;;17.35;11.32;;;512.30;2380.80;;;;;;5074295;28;20480;-81
2022/04/23 10:29:45;;;;;;;16.85;11.88;;;512.10;2329.60;;;;;;5071766;28;20023;-82
2022/04/23 10:32:10;;;;;;;18.45;13.18;;;487.30;2380.80;;;;;;5074267;28;20031;-83
2022/04/23 10:34:37;;;;;;;18.27;13.55;;;487.30;2380.80;;;;;;5073199;28;20016;-82
2022/04/23 10:37:13;;;;;;;16.73;11.57;;;487.30;2380.80;;;;;;5070455;28;20024;-81
2022/04/23 10:39:39;;;;;;;16.52;11.65;;;512.10;2380.80;;;;;;5091443;28;20020;-78
2022/04/23 10:42:06;;;;;;;14.05;10.75;;;512.10;2380.80;;;;;;5091528;28;20032;-80
2022/04/23 10:44:31;;;;;;;15.00;10.40;;;512.00;2380.80;;;;;;5061633;28;20481;-84
2022/04/23 10:46:58;;;;;;;17.10;11.20;;;487.30;2304.00;;;;;;5072625;28;20031;-78
2022/04/23 10:49:25;;;;;;;18.40;13.02;;;487.10;2380.80;;;;;;5089045;28;20016;-80
2022/04/23 10:51:55;;;;;;;20.35;12.18;;;487.00;2380.80;;;;;;5091898;28;20072;-79
2022/04/23 10:54:41;;;;;;;14.98;11.63;;;486.80;2380.80;;;;;;5065212;28;20024;-77
2022/04/23 10:57:08;;;;;;;16.73;11.57;;;486.80;2380.80;;;;;;5092785;28;20028;-77
2022/04/23 10:59:38;;;;;;;17.00;12.40;;;486.80;2380.80;;;;;;5092812;28;20027;-80
2022/04/23 11:02:10;;;;;;;15.15;11.02;;;486.90;2380.80;;;;;;5095064;28;20123;-81
2022/04/23 11:13:31;;;;;;;18.00;13.15;;;486.90;2380.80;;;;;;5105459;28;20047;-79
2022/04/23 11:16:14;;;;;;;19.75;12.90;;;512.00;2380.80;;;;;;5101747;28;20457;-79
2022/04/23 11:18:41;;;;;;;19.42;12.88;;;512.60;2380.80;;;;;;5076491;28;20032;-79
2022/04/23 11:21:12;;;;;;;17.58;12.60;;;512.60;2380.80;;;;;;5068707;28;20047;-79
2022/04/23 11:23:45;;;;;;;16.08;12.77;;;512.40;2380.80;;;;;;5077621;28;20484;-79
2022/04/23 11:26:17;;;;;;;20.33;13.95;;;512.30;2355.20;;;;;;5066813;28;20032;-79
2022/04/23 11:28:43;;;;;;;21.40;14.05;;;512.70;2227.20;;;;;;5077031;28;20120;-81
2022/04/23 11:31:16;;;;;;;18.88;12.95;;;512.80;2380.80;;;;;;5069857;28;20460;-85
2022/04/23 11:33:50;;;;;;;20.08;13.55;;;537.80;2252.80;;;;;;5077639;28;20107;-79
2022/04/23 11:36:17;;;;;;;17.23;12.57;;;512.70;2252.80;;;;;;5066440;28;20044;-83
2022/04/23 11:38:43;;;;;;;19.63;12.38;;;512.20;2278.40;;;;;;5069333;28;20081;-81
2022/04/23 11:41:09;;;;;;;20.73;13.18;;;512.40;2176.00;;;;;;5077735;28;20031;-79
2022/04/23 11:43:39;;;;;;;19.13;13.23;;;512.80;2380.80;;;;;;5077368;28;20012;-78
2022/04/23 11:46:07;;;;;;;18.23;13.63;;;537.80;2227.20;;;;;;5065446;28;20028;-79
2022/04/23 11:48:47;;;;;;;15.18;11.82;;;512.90;2227.20;;;;;;5077096;28;20073;-80
2022/04/23 11:51:20;;;;;;;15.38;11.57;;;512.60;2278.40;;;;;;5093526;28;20064;-84
2022/04/23 11:53:48;;;;;;;20.17;11.45;;;537.70;2176.00;;;;;;5074414;28;20024;-80
2022/04/23 11:56:28;;;;;;;17.95;12.00;;;537.80;2176.00;;;;;;5076581;28;20557;-81
2022/04/23 11:58:56;;;;;;;15.43;11.18;;;538.00;2252.80;;;;;;5075981;28;20074;-82
2022/04/23 12:01:26;;;;;;;15.00;11.38;;;538.00;2150.40;;;;;;5062593;28;20048;-78
2022/04/23 12:03:55;;;;;;;16.75;11.77;;;538.00;2099.20;;;;;;5076546;28;20477;-77
2022/04/23 12:06:25;;;;;;;21.58;11.95;;;538.40;1996.80;;;;;;5075919;28;20115;-78
2022/04/23 12:08:51;;;;;;;15.27;9.20;;;563.20;2022.40;;;;;;5075462;28;20024;-78
2022/04/23 12:11:27;;;;;;;15.48;9.88;;;563.40;1894.40;;;;;;5075601;28;20028;-76
2022/04/23 12:13:53;;;;;;;14.85;10.13;;;563.60;1843.20;;;;;;5092322;28;20543;-77
2022/04/23 12:16:31;;;;;;;17.52;11.25;;;563.20;1868.80;;;;;;5093859;28;20375;-77
2022/04/23 12:19:02;;;;;;;15.48;10.85;;;563.20;1894.40;;;;;;5074579;28;20016;-78
2022/04/23 12:21:28;;;;;;;21.73;11.43;;;538.30;1971.20;;;;;;5073781;28;20028;-76
2022/04/23 12:23:55;;;;;;;16.40;9.88;;;538.50;1996.80;;;;;;5075205;28;20024;-79
2022/04/23 12:26:22;;;;;;;17.27;11.25;;;563.50;1945.60;;;;;;5075881;28;20035;-79
2022/04/23 12:42:30;;;;;;;11.35;8.98;;;563.60;1920.00;;;;;;5091751;28;20411;-78
2022/04/23 12:44:56;;;;;;;16.90;10.02;;;563.90;1817.60;;;;;;5093802;28;20503;-79
2022/04/23 12:47:34;;;;;;;14.85;10.55;;;563.40;1817.60;;;;;;5075904;28;20119;-79
2022/04/23 12:50:03;;;;;;;19.48;10.80;;;563.30;1843.20;;;;;;5092970;28;20485;-79